Coral Topaz — 3ELB7 — position and weather

sailwx.info

Track history (hours):
 
Tides and Currents Weather Stations Pressure Air Temp Water Temp Dewpoint Dewpoint Depression Visibility Wind Speed Wind Dir Waves Ship Positions

Coral Topaz

Last reported at 2015-Jul-04 17:26 UTC. Time now 2015-Jul-04 22:32 UTC.
Position S 32°23' E 152°47'.

Length 225 m; draft 13.7 m.

Type: Ship. MMSI: 372904000.

Date/timePositionNaut miles runAvg speedWind from/ knotsBaromVisibWave heightAir tempDewpointWater temp
2015-Jul-04 17:26S 32°23' E 152°47'1311.7
2015-Jul-04 16:20S 32°33' E 152°37'1012.9
2015-Jul-04 15:33S 32°40' E 152°28'1313.2
2015-Jul-04 14:33S 32°49' E 152°16'1313.0
2015-Jul-04 13:33S 32°54' E 152°02'1110.6
2015-Jul-04 12:33S 32°56' E 151°50'4 4.4
2015-Jul-04 11:33S 32°53' E 151°46'0 0.2
2015-Jul-04 10:34S 32°53' E 151°46'0 0.0
2015-Jul-04 09:34S 32°53' E 151°46'0 0.0
2015-Jul-04 08:33S 32°53' E 151°46'0 0.0
2015-Jul-04 06:24S 32°53' E 151°46'0 0.0
2015-Jul-04 05:31S 32°53' E 151°46'0 0.0
2015-Jul-04 04:25S 32°53' E 151°46'0 0.0
2015-Jul-04 03:33S 32°53' E 151°46'0 0.0
2015-Jul-04 02:31S 32°53' E 151°46'0 0.0
2015-Jul-04 01:30S 32°53' E 151°46'0 0.0
2015-Jul-04 00:33S 32°53' E 151°46'0 0.0
2015-Jul-03 23:34S 32°53' E 151°46'0 0.0
2015-Jul-03 22:34S 32°53' E 151°46'0 0.0
2015-Jul-03 21:30S 32°53' E 151°46'0 0.0
2015-Jul-03 20:33S 32°53' E 151°46'0 0.0
2015-Jul-03 19:33S 32°53' E 151°46'0 0.0
2015-Jul-03 18:30S 32°53' E 151°46'0 0.0
2015-Jul-03 17:34S 32°53' E 151°46'0 0.0
2015-Jul-03 16:33S 32°53' E 151°46'0 0.2
2015-Jul-03 15:33S 32°53' E 151°46'6 5.7
2015-Jul-03 14:33S 32°57' E 151°51'6 6.2
2015-Jul-03 13:33S 33°03' E 151°49'4 0.1
2015-Jul-02 05:32S 33°06' E 151°49'1212.3
2015-Jul-02 04:33S 33°12' E 152°02'1211.9
2015-Jul-02 03:33S 33°13' E 152°16'3 1.9
2015-Jul-02 02:09S 33°13' E 152°12'1 1.9
2015-Jul-02 01:33S 33°12' E 152°11'4 3.9
2015-Jul-02 00:33S 33°09' E 152°11'1413.5
2015-Jul-01 23:33S 32°55' E 152°13'1313.4
2015-Jul-01 22:33S 32°43' E 152°20'1 1.1
2015-Jul-01 21:31S 32°42' E 152°21'1 1.3
2015-Jul-01 20:31S 32°43' E 152°21'1 1.1
2015-Jul-01 19:31S 32°45' E 152°20'1 1.2
2015-Jul-01 18:31S 32°46' E 152°20'2 1.6
2015-Jul-01 17:31S 32°47' E 152°19'2 1.6
2015-Jul-01 16:31S 32°48' E 152°17'1 1.5
2015-Jul-01 15:31S 32°49' E 152°16'1 1.2
2015-Jul-01 14:31S 32°49' E 152°15'1 1.0
2015-Jul-01 13:31S 32°50' E 152°14'1 0.9
2015-Jul-01 12:31S 32°50' E 152°13'0 0.4
2015-Jul-01 11:31S 32°50' E 152°12'0 0.3
2015-Jul-01 10:31S 32°50' E 152°12'0 0.4
2015-Jul-01 09:31S 32°51' E 152°12'1 0.5
2015-Jul-01 08:31S 32°51' E 152°12'1 0.7
2015-Jul-01 07:31S 32°52' E 152°11'1 0.9
2015-Jul-01 06:31S 32°53' E 152°11'1 1.1
2015-Jul-01 05:28S 32°54' E 152°10'1 1.2
2015-Jul-01 04:31S 32°55' E 152°10'1 1.2
2015-Jul-01 03:31S 32°56' E 152°09'1 1.5
2015-Jul-01 02:31S 32°57' E 152°08'2 1.5
2015-Jul-01 01:31S 32°58' E 152°08'2 1.6
2015-Jul-01 00:33S 32°59' E 152°06'8 8.0
2015-Jun-30 23:33S 32°54' E 152°12'1212.2
2015-Jun-30 22:33S 32°45' E 152°23'1312.9
2015-Jun-30 21:33S 32°36' E 152°34'1613.1
2015-Jun-30 20:21S 32°25' E 152°47'27013.0
2015-Jun-29 23:33S 27°59' E 153°42'1414.0
2015-Jun-29 22:33S 27°45' E 153°42'1514.7
2015-Jun-29 21:33S 27°31' E 153°42'1615.5
2015-Jun-29 20:33S 27°15' E 153°43'1616.1
2015-Jun-29 19:34S 26°59' E 153°45'1714.9
2015-Jun-29 18:27S 26°43' E 153°48'  
Track history (hours):
 
Tides and Currents Weather Stations Pressure Air Temp Water Temp Dewpoint Dewpoint Depression Visibility Wind Speed Wind Dir Waves Ship Positions

Coral Topaz

Last reported at 2015-Jul-04 17:26 UTC. Time now 2015-Jul-04 22:32 UTC.
Position S 32°23' E 152°47'.

Length 225 m; draft 13.7 m.

Type: Ship. MMSI: 372904000.

Date/timePositionNaut miles runAvg speedWind from/ knotsBaromVisibWave heightAir tempDewpointWater temp
2015-Jul-04 17:26S 32°23' E 152°47'1311.7
2015-Jul-04 16:20S 32°33' E 152°37'1012.9
2015-Jul-04 15:33S 32°40' E 152°28'1313.2
2015-Jul-04 14:33S 32°49' E 152°16'1313.0
2015-Jul-04 13:33S 32°54' E 152°02'1110.6
2015-Jul-04 12:33S 32°56' E 151°50'4 4.4
2015-Jul-04 11:33S 32°53' E 151°46'0 0.2
2015-Jul-04 10:34S 32°53' E 151°46'0 0.0
2015-Jul-04 09:34S 32°53' E 151°46'0 0.0
2015-Jul-04 08:33S 32°53' E 151°46'0 0.0
2015-Jul-04 06:24S 32°53' E 151°46'0 0.0
2015-Jul-04 05:31S 32°53' E 151°46'0 0.0
2015-Jul-04 04:25S 32°53' E 151°46'0 0.0
2015-Jul-04 03:33S 32°53' E 151°46'0 0.0
2015-Jul-04 02:31S 32°53' E 151°46'0 0.0
2015-Jul-04 01:30S 32°53' E 151°46'0 0.0
2015-Jul-04 00:33S 32°53' E 151°46'0 0.0
2015-Jul-03 23:34S 32°53' E 151°46'0 0.0
2015-Jul-03 22:34S 32°53' E 151°46'0 0.0
2015-Jul-03 21:30S 32°53' E 151°46'0 0.0
2015-Jul-03 20:33S 32°53' E 151°46'0 0.0
2015-Jul-03 19:33S 32°53' E 151°46'0 0.0
2015-Jul-03 18:30S 32°53' E 151°46'0 0.0
2015-Jul-03 17:34S 32°53' E 151°46'0 0.0
2015-Jul-03 16:33S 32°53' E 151°46'0 0.2
2015-Jul-03 15:33S 32°53' E 151°46'6 5.7
2015-Jul-03 14:33S 32°57' E 151°51'6 6.2
2015-Jul-03 13:33S 33°03' E 151°49'4 0.1
2015-Jul-02 05:32S 33°06' E 151°49'1212.3
2015-Jul-02 04:33S 33°12' E 152°02'1211.9
2015-Jul-02 03:33S 33°13' E 152°16'3 1.9
2015-Jul-02 02:09S 33°13' E 152°12'1 1.9
2015-Jul-02 01:33S 33°12' E 152°11'4 3.9
2015-Jul-02 00:33S 33°09' E 152°11'1413.5
2015-Jul-01 23:33S 32°55' E 152°13'1313.4
2015-Jul-01 22:33S 32°43' E 152°20'1 1.1
2015-Jul-01 21:31S 32°42' E 152°21'1 1.3
2015-Jul-01 20:31S 32°43' E 152°21'1 1.1
2015-Jul-01 19:31S 32°45' E 152°20'1 1.2
2015-Jul-01 18:31S 32°46' E 152°20'2 1.6
2015-Jul-01 17:31S 32°47' E 152°19'2 1.6
2015-Jul-01 16:31S 32°48' E 152°17'1 1.5
2015-Jul-01 15:31S 32°49' E 152°16'1 1.2
2015-Jul-01 14:31S 32°49' E 152°15'1 1.0
2015-Jul-01 13:31S 32°50' E 152°14'1 0.9
2015-Jul-01 12:31S 32°50' E 152°13'0 0.4
2015-Jul-01 11:31S 32°50' E 152°12'0 0.3
2015-Jul-01 10:31S 32°50' E 152°12'0 0.4
2015-Jul-01 09:31S 32°51' E 152°12'1 0.5
2015-Jul-01 08:31S 32°51' E 152°12'1 0.7
2015-Jul-01 07:31S 32°52' E 152°11'1 0.9
2015-Jul-01 06:31S 32°53' E 152°11'1 1.1
2015-Jul-01 05:28S 32°54' E 152°10'1 1.2
2015-Jul-01 04:31S 32°55' E 152°10'1 1.2
2015-Jul-01 03:31S 32°56' E 152°09'1 1.5
2015-Jul-01 02:31S 32°57' E 152°08'2 1.5
2015-Jul-01 01:31S 32°58' E 152°08'2 1.6
2015-Jul-01 00:33S 32°59' E 152°06'8 8.0
2015-Jun-30 23:33S 32°54' E 152°12'1212.2
2015-Jun-30 22:33S 32°45' E 152°23'1312.9
2015-Jun-30 21:33S 32°36' E 152°34'1613.1
2015-Jun-30 20:21S 32°25' E 152°47'27013.0
2015-Jun-29 23:33S 27°59' E 153°42'1414.0
2015-Jun-29 22:33S 27°45' E 153°42'1514.7
2015-Jun-29 21:33S 27°31' E 153°42'1615.5
2015-Jun-29 20:33S 27°15' E 153°43'1616.1
2015-Jun-29 19:34S 26°59' E 153°45'1714.9
2015-Jun-29 18:27S 26°43' E 153°48'  

Dump ship's entire track history